SoundGuardian — WDI8675 — position and weather

sailwx.info

Track history (hours):
 
Tides and Currents Weather Stations Pressure Air Temp Water Temp Dewpoint Dewpoint Depression Visibility Wind Speed Wind Dir Waves Ship Positions

Oceanographic research ship SoundGuardian (United States)

Owner: King County Environmental Laboratory, Seattle, WA. More information available from US FCC via Universal Licensing System and Coast Guard Vessel Documentation Center.

Last reported at 2020-Sep-22 16:30 UTC. Time now 2020-Sep-29 08:27 UTC.
Position N 47°31' W 122°24'.

Length 13 m; draft 1 m.

Type: Other ship. MMSI: 367741020.

Date/timePositionNaut miles runAvg speedWind from/ knotsBaromVisibWave heightAir tempDewpointWater temp
2020-Sep-22 16:30N 47°31' W 122°24'1 1.4
2020-Sep-22 16:00N 47°32' W 122°24'1 1.8
2020-Sep-22 15:31N 47°33' W 122°25'7 0.4
2020-Sep-21 23:00N 47°40' W 122°23'7 7.0
2020-Sep-21 22:01N 47°33' W 122°20'1 2.8
2020-Sep-21 21:31N 47°32' W 122°19'3 2.8
2020-Sep-21 20:30N 47°35' W 122°21'11 3.6
2020-Sep-21 17:30N 47°45' W 122°26'0 0.1
2020-Sep-21 16:00N 47°45' W 122°26'6 3.0
2020-Sep-21 14:00N 47°39' W 122°22'  
Track history (hours):
 
Tides and Currents Weather Stations Pressure Air Temp Water Temp Dewpoint Dewpoint Depression Visibility Wind Speed Wind Dir Waves Ship Positions

Oceanographic research ship SoundGuardian (United States)

Owner: King County Environmental Laboratory, Seattle, WA. More information available from US FCC via Universal Licensing System and Coast Guard Vessel Documentation Center.

Last reported at 2020-Sep-22 16:30 UTC. Time now 2020-Sep-29 08:27 UTC.
Position N 47°31' W 122°24'.

Length 13 m; draft 1 m.

Type: Other ship. MMSI: 367741020.

Date/timePositionNaut miles runAvg speedWind from/ knotsBaromVisibWave heightAir tempDewpointWater temp
2020-Sep-22 16:30N 47°31' W 122°24'1 1.4
2020-Sep-22 16:00N 47°32' W 122°24'1 1.8
2020-Sep-22 15:31N 47°33' W 122°25'7 0.4
2020-Sep-21 23:00N 47°40' W 122°23'7 7.0
2020-Sep-21 22:01N 47°33' W 122°20'1 2.8
2020-Sep-21 21:31N 47°32' W 122°19'3 2.8
2020-Sep-21 20:30N 47°35' W 122°21'11 3.6
2020-Sep-21 17:30N 47°45' W 122°26'0 0.1
2020-Sep-21 16:00N 47°45' W 122°26'6 3.0
2020-Sep-21 14:00N 47°39' W 122°22'  

Dump ship's entire track history